createdAt,value
2022-12-04T00:02:44.559Z,100906.28
2022-12-04T00:05:46.935Z,100904.34
2022-12-04T00:08:49.654Z,100917.16
2022-12-04T00:11:51.895Z,100908.56
2022-12-04T00:15:24.546Z,100891.41
2022-12-04T00:18:16.345Z,100896.81
2022-12-04T00:21:20.327Z,100908.16
2022-12-04T00:24:22.555Z,100915.19
2022-12-04T00:27:24.877Z,100913.03
2022-12-04T00:30:27.184Z,100914.09
2022-12-04T00:33:29.441Z,100919.38
2022-12-04T00:36:31.752Z,100924.03
2022-12-04T00:39:34.088Z,100909.38
2022-12-04T00:42:36.376Z,100902.28
2022-12-04T00:45:38.700Z,100907.63
2022-12-04T00:48:41.499Z,100916.66
2022-12-04T00:51:43.813Z,100903.88
2022-12-04T00:54:46.078Z,100917.41
2022-12-04T00:57:48.605Z,100916.06
2022-12-04T01:00:51.072Z,100916.66
2022-12-04T01:03:54.401Z,100915.84
2022-12-04T01:07:01.558Z,100921.72
2022-12-04T01:10:08.916Z,100930.38
2022-12-04T01:13:11.499Z,100920.84
2022-12-04T01:16:28.563Z,100932.59
2022-12-04T01:19:31.183Z,100922.03
2022-12-04T01:22:33.492Z,100926.41
2022-12-04T01:25:35.740Z,100940.53
2022-12-04T01:28:38.323Z,100922.66
2022-12-04T01:31:40.712Z,100932.94
2022-12-04T01:34:43.127Z,100913.31
2022-12-04T01:37:45.501Z,100912.56
2022-12-04T01:40:48.181Z,100913.97
2022-12-04T01:44:12.480Z,100924.84
2022-12-04T01:47:14.787Z,100921.47
2022-12-04T01:50:17.169Z,100925.59
2022-12-04T01:53:19.801Z,100917.50
2022-12-04T01:56:29.567Z,100917.66
2022-12-04T01:59:35.721Z,100925.09
2022-12-04T02:02:40.554Z,100909.78
2022-12-04T02:05:42.923Z,100919.75
2022-12-04T02:08:45.354Z,100905.84
2022-12-04T02:12:19.938Z,100908.81
2022-12-04T02:15:25.087Z,100910.47
2022-12-04T02:18:38.613Z,100901.72
2022-12-04T02:21:44.169Z,100909.66
2022-12-04T02:25:08.131Z,100910.28
2022-12-04T02:28:19.819Z,100901.22
2022-12-04T02:31:28.645Z,100896.97
2022-12-04T02:34:43.452Z,100910.06
2022-12-04T02:38:04.213Z,100897.75
2022-12-04T02:41:23.364Z,100902.06
2022-12-04T02:44:39.133Z,100899.06
2022-12-04T02:47:43.221Z,100905.00
2022-12-04T02:50:47.564Z,100906.53
2022-12-04T02:53:53.884Z,100897.28
2022-12-04T02:56:56.805Z,100896.44
2022-12-04T03:00:00.366Z,100891.81
2022-12-04T03:03:18.341Z,100890.97
2022-12-04T03:06:22.247Z,100890.69
2022-12-04T03:09:38.114Z,100903.06
2022-12-04T03:13:04.176Z,100885.78
2022-12-04T03:16:11.073Z,100888.25
2022-12-04T03:19:20.339Z,100899.91
2022-12-04T03:22:24.548Z,100894.31
2022-12-04T03:25:33.579Z,100890.03
2022-12-04T03:29:01.752Z,100893.84
2022-12-04T03:32:16.786Z,100902.44
2022-12-04T03:35:28.102Z,100905.00
2022-12-04T03:38:47.429Z,100901.19
2022-12-04T03:41:59.766Z,100885.19
2022-12-04T03:45:05.330Z,100894.91
2022-12-04T03:48:23.344Z,100890.31
2022-12-04T03:52:04.836Z,100902.00
2022-12-04T03:55:29.195Z,100898.09
2022-12-04T03:58:33.647Z,100891.53
2022-12-04T04:01:39.999Z,100918.63
2022-12-04T04:04:45.442Z,100909.06
2022-12-04T04:07:56.984Z,100899.53
2022-12-04T04:11:17.455Z,100893.09
2022-12-04T04:15:14.112Z,100894.25
2022-12-04T04:18:34.948Z,100899.53
2022-12-04T04:21:57.771Z,100895.56
2022-12-04T04:25:07.084Z,100892.25
2022-12-04T04:28:27.649Z,100902.78
2022-12-04T04:31:34.606Z,100911.38
2022-12-04T04:35:04.967Z,100916.72
2022-12-04T04:38:25.984Z,100907.69
2022-12-04T04:41:42.643Z,100899.38
2022-12-04T04:44:50.880Z,100902.69
2022-12-04T04:48:32.043Z,100907.97
2022-12-04T04:51:35.214Z,100889.81
2022-12-04T04:54:37.725Z,100894.88
2022-12-04T04:57:40.013Z,100896.03
2022-12-04T05:00:52.899Z,100897.63
2022-12-04T05:03:55.191Z,100899.00
2022-12-04T05:06:57.492Z,100897.66
2022-12-04T05:09:59.845Z,100884.63
2022-12-04T05:13:02.145Z,100899.44
2022-12-04T05:16:07.014Z,100906.00
2022-12-04T05:19:27.851Z,100895.84
2022-12-04T05:22:32.506Z,100911.06
2022-12-04T05:25:34.746Z,100903.66
2022-12-04T05:28:37.084Z,100895.59
2022-12-04T05:31:39.563Z,100906.59
2022-12-04T05:34:42.434Z,100895.53
2022-12-04T05:37:45.648Z,100900.50
2022-12-04T05:40:47.861Z,100893.53
2022-12-04T05:43:50.143Z,100905.25
2022-12-04T05:46:52.525Z,100890.25
2022-12-04T05:49:56.250Z,100878.88
2022-12-04T05:52:58.719Z,100882.63
2022-12-04T05:56:02.401Z,100903.53
2022-12-04T05:59:04.672Z,100889.53
2022-12-04T06:02:06.992Z,100892.13
2022-12-04T06:05:09.379Z,100876.31
2022-12-04T06:08:11.852Z,100893.25
2022-12-04T06:11:15.827Z,100873.97
2022-12-04T06:14:18.176Z,100898.34
2022-12-04T06:17:20.468Z,100897.75
2022-12-04T06:20:22.939Z,100889.75
2022-12-04T06:23:25.304Z,100897.84
2022-12-04T06:26:27.760Z,100912.66
2022-12-04T06:29:30.146Z,100901.16
2022-12-04T06:32:32.466Z,100898.09
2022-12-04T06:35:34.714Z,100899.41
2022-12-04T06:38:37.198Z,100913.22
2022-12-04T06:41:39.538Z,100904.31
2022-12-04T06:44:41.878Z,100905.56
2022-12-04T06:47:44.164Z,100908.19
2022-12-04T06:50:46.397Z,100897.63
2022-12-04T06:53:49.075Z,100898.63
2022-12-04T06:56:51.395Z,100901.91
2022-12-04T06:59:54.040Z,100900.06
2022-12-04T07:02:56.402Z,100885.69
2022-12-04T07:05:58.611Z,100891.34
2022-12-04T07:09:06.622Z,100904.16
2022-12-04T07:12:08.852Z,100902.69
2022-12-04T07:15:11.322Z,100886.00
2022-12-04T07:18:13.566Z,100889.84
2022-12-04T07:21:21.012Z,100910.22
2022-12-04T07:24:23.335Z,100905.44
2022-12-04T07:27:25.602Z,100903.97
2022-12-04T07:30:27.883Z,100899.84
2022-12-04T07:33:30.159Z,100907.03
2022-12-04T07:36:32.440Z,100909.22
2022-12-04T07:39:34.930Z,100899.03
2022-12-04T07:42:37.197Z,100883.66
2022-12-04T07:45:39.506Z,100901.63
2022-12-04T07:48:42.053Z,100909.78
2022-12-04T07:51:44.391Z,100896.53
2022-12-04T07:54:46.697Z,100890.50
2022-12-04T07:57:48.998Z,100898.84
2022-12-04T08:00:51.355Z,100896.44
2022-12-04T08:03:56.710Z,100890.56
2022-12-04T08:06:59.486Z,100894.34
2022-12-04T08:10:01.830Z,100888.03
2022-12-04T08:13:04.136Z,100892.16
2022-12-04T08:16:11.520Z,100896.72
2022-12-04T08:19:13.895Z,100905.38
2022-12-04T08:22:20.329Z,100895.34
2022-12-04T08:25:25.656Z,100885.28
2022-12-04T08:28:28.425Z,100886.09
2022-12-04T08:31:33.147Z,100898.91
2022-12-04T08:34:35.500Z,100886.00
2022-12-04T08:37:37.805Z,100889.66
2022-12-04T08:40:40.074Z,100897.91
2022-12-04T08:43:42.388Z,100910.50
2022-12-04T08:46:44.760Z,100910.53
2022-12-04T08:49:47.204Z,100906.13
2022-12-04T08:52:49.462Z,100909.13
2022-12-04T08:55:52.540Z,100918.03
2022-12-04T08:58:56.086Z,100917.03
2022-12-04T09:01:58.404Z,100901.94
2022-12-04T09:05:00.756Z,100905.78
2022-12-04T09:08:03.069Z,100916.63
2022-12-04T09:11:09.828Z,100911.34
2022-12-04T09:14:12.211Z,100905.03
2022-12-04T09:17:14.897Z,100898.34
2022-12-04T09:20:17.184Z,100895.78
2022-12-04T09:23:19.720Z,100893.75
2022-12-04T09:26:26.361Z,100900.31
2022-12-04T09:29:28.713Z,100893.78
2022-12-04T09:32:31.071Z,100889.47
2022-12-04T09:35:34.399Z,100879.97
2022-12-04T09:38:36.745Z,100877.59
2022-12-04T09:42:13.289Z,100891.28
2022-12-04T09:45:21.235Z,100870.06
2022-12-04T09:48:29.114Z,100871.78
2022-12-04T09:51:31.614Z,100870.13
2022-12-04T09:54:38.636Z,100863.31
2022-12-04T09:57:44.603Z,100868.06
2022-12-04T10:00:49.446Z,100849.97
2022-12-04T10:03:53.222Z,100841.41
2022-12-04T10:07:41.311Z,100833.84
2022-12-04T10:11:09.426Z,100828.69
2022-12-04T10:14:42.979Z,100832.50
2022-12-04T10:18:16.199Z,100827.28
2022-12-04T10:21:24.692Z,100829.00
2022-12-04T10:24:39.053Z,100828.22
2022-12-04T10:27:53.584Z,100807.13
2022-12-04T10:30:58.398Z,100798.13
2022-12-04T10:34:17.720Z,100797.09
2022-12-04T10:37:20.275Z,100798.94
2022-12-04T10:40:25.012Z,100802.50
2022-12-04T10:43:42.165Z,100802.69
2022-12-04T10:46:46.274Z,100794.69
2022-12-04T10:49:49.102Z,100786.94
2022-12-04T10:52:51.834Z,100779.53
2022-12-04T10:55:54.121Z,100777.50
2022-12-04T10:59:05.717Z,100785.28
2022-12-04T11:02:25.869Z,100770.09
2022-12-04T11:05:55.500Z,100762.50
2022-12-04T11:08:59.192Z,100747.97
2022-12-04T11:12:09.927Z,100764.19
2022-12-04T11:15:14.777Z,100745.31
2022-12-04T11:18:49.522Z,100740.97
2022-12-04T11:21:53.428Z,100737.13
2022-12-04T11:24:57.953Z,100732.78
2022-12-04T11:28:01.547Z,100740.97
2022-12-04T11:31:05.185Z,100725.88
2022-12-04T11:34:09.328Z,100743.69
2022-12-04T11:37:34.090Z,100741.03
2022-12-04T11:40:36.683Z,100733.66
2022-12-04T11:43:50.864Z,100735.28
2022-12-04T11:46:58.055Z,100714.44
2022-12-04T11:50:14.399Z,100721.41
2022-12-04T11:53:41.583Z,100704.59
2022-12-04T11:56:48.365Z,100698.25
2022-12-04T12:00:14.756Z,100684.13
2022-12-04T12:03:40.101Z,100694.38
2022-12-04T12:07:03.827Z,100694.34
2022-12-04T12:10:17.759Z,100695.78
2022-12-04T12:14:01.429Z,100711.75
2022-12-04T12:17:23.618Z,100696.00
2022-12-04T12:20:39.813Z,100696.22
2022-12-04T12:23:51.959Z,100701.75
2022-12-04T12:27:08.518Z,100706.88
2022-12-04T12:30:18.269Z,100700.50
2022-12-04T12:33:24.623Z,100699.91
2022-12-04T12:36:29.871Z,100701.53
2022-12-04T12:40:04.723Z,100701.72
2022-12-04T12:43:19.791Z,100693.75
2022-12-04T12:46:30.993Z,100696.41
2022-12-04T12:49:55.628Z,100705.00
2022-12-04T12:53:17.354Z,100697.63
2022-12-04T12:56:26.181Z,100686.59
2022-12-04T12:59:28.879Z,100684.97
2022-12-04T13:02:41.365Z,100679.66
2022-12-04T13:05:46.656Z,100685.16
2022-12-04T13:09:06.993Z,100693.34
2022-12-04T13:12:13.376Z,100693.53
2022-12-04T13:15:17.341Z,100689.63
2022-12-04T13:18:26.065Z,100680.03
2022-12-04T13:21:29.859Z,100693.97
2022-12-04T13:24:39.751Z,100698.47
2022-12-04T13:27:50.788Z,100709.50
2022-12-04T13:31:20.452Z,100697.44
2022-12-04T13:34:55.126Z,100719.09
2022-12-04T13:38:23.740Z,100715.63
2022-12-04T13:41:27.356Z,100720.94
2022-12-04T13:44:31.453Z,100712.75
2022-12-04T13:47:35.514Z,100718.25
2022-12-04T13:50:39.184Z,100719.66
2022-12-04T13:53:43.127Z,100708.19
2022-12-04T13:56:48.231Z,100708.81
2022-12-04T14:00:06.501Z,100721.63
2022-12-04T14:03:28.895Z,100724.50
2022-12-04T14:06:41.753Z,100734.50
2022-12-04T14:09:49.755Z,100728.94
2022-12-04T14:12:59.757Z,100742.47
2022-12-04T14:16:10.257Z,100739.03
2022-12-04T14:19:26.524Z,100739.41
2022-12-04T14:22:38.150Z,100742.06
2022-12-04T14:25:40.586Z,100742.44
2022-12-04T14:28:43.932Z,100734.91
2022-12-04T14:31:46.228Z,100731.44
2022-12-04T14:34:49.613Z,100731.66
2022-12-04T14:37:59.397Z,100742.06
2022-12-04T14:41:02.080Z,100739.63
2022-12-04T14:44:04.727Z,100726.09
2022-12-04T14:47:25.781Z,100735.13
2022-12-04T14:50:34.717Z,100724.88
2022-12-04T14:54:00.538Z,100728.91
2022-12-04T14:57:27.246Z,100734.28
2022-12-04T15:00:29.550Z,100724.03
2022-12-04T15:03:42.748Z,100724.38
2022-12-04T15:06:47.839Z,100729.47
2022-12-04T15:10:10.870Z,100734.19
2022-12-04T15:13:21.425Z,100730.69
2022-12-04T15:16:24.197Z,100743.75
2022-12-04T15:19:26.464Z,100741.28
2022-12-04T15:22:29.175Z,100734.19
2022-12-04T15:25:44.613Z,100744.44
2022-12-04T15:28:57.396Z,100748.72
2022-12-04T15:32:04.137Z,100741.69
2022-12-04T15:35:10.019Z,100750.03
2022-12-04T15:38:15.649Z,100735.47
2022-12-04T15:41:44.335Z,100752.47
2022-12-04T15:45:13.342Z,100750.41
2022-12-04T15:48:24.887Z,100750.09
2022-12-04T15:51:27.527Z,100743.41
2022-12-04T15:54:29.818Z,100739.31
2022-12-04T15:57:40.639Z,100742.63
2022-12-04T16:00:44.330Z,100750.34
2022-12-04T16:03:51.931Z,100738.38
2022-12-04T16:06:54.305Z,100741.84
2022-12-04T16:10:03.758Z,100746.13
2022-12-04T16:13:06.548Z,100742.66
2022-12-04T16:16:13.171Z,100741.97
2022-12-04T16:19:34.722Z,100744.41
2022-12-04T16:22:39.405Z,100737.44
2022-12-04T16:25:41.787Z,100750.97
2022-12-04T16:28:44.525Z,100754.47
2022-12-04T16:31:47.052Z,100739.38
2022-12-04T16:34:49.343Z,100741.38
2022-12-04T16:37:51.713Z,100749.53
2022-12-04T16:40:54.074Z,100755.75
2022-12-04T16:43:58.811Z,100748.88
2022-12-04T16:47:01.335Z,100753.53
2022-12-04T16:50:04.060Z,100738.63
2022-12-04T16:53:06.417Z,100740.34
2022-12-04T16:56:09.539Z,100738.81
2022-12-04T16:59:12.541Z,100755.63
2022-12-04T17:02:21.945Z,100749.50
2022-12-04T17:05:29.427Z,100742.53
2022-12-04T17:08:32.146Z,100745.97
2022-12-04T17:11:34.894Z,100757.84
2022-12-04T17:14:37.176Z,100754.16
2022-12-04T17:17:40.328Z,100759.22
2022-12-04T17:20:43.644Z,100744.97
2022-12-04T17:23:46.067Z,100744.19
2022-12-04T17:26:48.326Z,100760.16
2022-12-04T17:29:50.666Z,100753.47
2022-12-04T17:32:53.118Z,100751.50
2022-12-04T17:35:56.039Z,100765.13
2022-12-04T17:38:59.542Z,100753.69
2022-12-04T17:42:02.120Z,100760.78
2022-12-04T17:45:05.101Z,100763.47
2022-12-04T17:48:07.596Z,100761.13
2022-12-04T17:51:18.036Z,100768.16
2022-12-04T17:54:20.430Z,100765.31
2022-12-04T17:57:22.850Z,100763.16
2022-12-04T18:00:26.214Z,100757.78
2022-12-04T18:03:29.019Z,100760.63
2022-12-04T18:06:33.857Z,100765.69
2022-12-04T18:09:36.344Z,100765.81
2022-12-04T18:12:39.012Z,100756.41
2022-12-04T18:15:41.279Z,100768.16
2022-12-04T18:18:46.729Z,100773.22
2022-12-04T18:21:49.629Z,100771.66
2022-12-04T18:24:52.599Z,100772.28
2022-12-04T18:27:54.878Z,100780.06
2022-12-04T18:31:07.854Z,100778.19
2022-12-04T18:34:10.883Z,100783.25
2022-12-04T18:37:13.269Z,100781.06
2022-12-04T18:40:15.606Z,100788.56
2022-12-04T18:43:18.717Z,100777.44
2022-12-04T18:46:22.200Z,100785.00
2022-12-04T18:49:24.668Z,100781.84
2022-12-04T18:52:26.924Z,100782.59
2022-12-04T18:55:29.209Z,100785.38
2022-12-04T18:58:31.572Z,100784.78
2022-12-04T19:01:34.228Z,100784.50
2022-12-04T19:04:36.505Z,100777.13
2022-12-04T19:07:39.180Z,100784.78
2022-12-04T19:10:41.530Z,100788.88
2022-12-04T19:13:43.840Z,100794.13
2022-12-04T19:16:46.524Z,100788.03
2022-12-04T19:19:49.044Z,100788.28
2022-12-04T19:22:51.324Z,100788.69
2022-12-04T19:25:58.117Z,100791.41
2022-12-04T19:29:01.966Z,100793.59
2022-12-04T19:32:04.452Z,100792.09
2022-12-04T19:35:07.125Z,100799.28
2022-12-04T19:38:09.959Z,100787.91
2022-12-04T19:41:16.763Z,100795.88
2022-12-04T19:47:43.728Z,100789.19
2022-12-04T19:50:46.005Z,100794.50
2022-12-04T19:53:49.212Z,100802.47
2022-12-04T19:56:52.721Z,100789.19
2022-12-04T19:59:55.311Z,100793.19
2022-12-04T20:02:57.978Z,100779.19
2022-12-04T20:06:05.169Z,100785.09
2022-12-04T20:09:10.622Z,100788.69
2022-12-04T20:12:13.311Z,100792.91
2022-12-04T20:15:15.799Z,100790.31
2022-12-04T20:18:18.206Z,100790.59
2022-12-04T20:21:26.327Z,100809.03
2022-12-04T20:24:28.739Z,100796.38
2022-12-04T20:27:31.021Z,100794.63
2022-12-04T20:30:33.361Z,100799.28
2022-12-04T20:33:35.729Z,100799.22
2022-12-04T20:36:40.673Z,100817.19
2022-12-04T20:39:43.109Z,100818.06
2022-12-04T20:42:45.586Z,100806.75
2022-12-04T20:45:48.012Z,100813.91
2022-12-04T20:48:52.110Z,100814.22
2022-12-04T20:51:54.626Z,100811.75
2022-12-04T20:54:56.898Z,100821.63
2022-12-04T20:57:59.220Z,100803.66
2022-12-04T21:01:16.281Z,100834.88
2022-12-04T21:04:18.987Z,100833.00
2022-12-04T21:07:21.231Z,100817.56
2022-12-04T21:10:23.544Z,100812.63
2022-12-04T21:13:44.428Z,100830.06
2022-12-04T21:16:47.685Z,100823.78
2022-12-04T21:19:50.705Z,100816.19
2022-12-04T21:22:53.028Z,100819.53
2022-12-04T21:25:55.955Z,100812.91
2022-12-04T21:28:58.650Z,100823.72
2022-12-04T21:32:01.087Z,100818.59
2022-12-04T21:35:03.682Z,100812.63
2022-12-04T21:38:05.951Z,100819.84
2022-12-04T21:41:09.285Z,100819.59
2022-12-04T21:44:14.607Z,100831.03
2022-12-04T21:47:17.527Z,100837.06
2022-12-04T21:50:19.774Z,100826.13
2022-12-04T21:53:22.455Z,100811.59
2022-12-04T21:56:25.354Z,100824.84
2022-12-04T21:59:27.863Z,100819.00
2022-12-04T22:02:30.338Z,100811.63
2022-12-04T22:05:33.119Z,100825.13
2022-12-04T22:08:36.858Z,100836.81
2022-12-04T22:11:41.878Z,100841.09
2022-12-04T22:14:44.148Z,100823.00
2022-12-04T22:17:46.625Z,100829.50
2022-12-04T22:20:49.252Z,100832.09
2022-12-04T22:23:56.308Z,100839.28
2022-12-04T22:26:58.629Z,100840.47
2022-12-04T22:30:00.884Z,100832.16
2022-12-04T22:33:03.299Z,100834.78
2022-12-04T22:36:14.076Z,100835.38
2022-12-04T22:39:16.433Z,100826.03
2022-12-04T22:42:19.043Z,100825.03
2022-12-04T22:45:21.304Z,100824.78
2022-12-04T22:48:24.669Z,100821.75
2022-12-04T22:51:29.792Z,100805.22
2022-12-04T22:54:32.206Z,100816.00
2022-12-04T22:57:34.605Z,100816.25
2022-12-04T23:00:36.866Z,100819.09
2022-12-04T23:03:39.617Z,100815.97
2022-12-04T23:06:41.893Z,100821.56
2022-12-04T23:09:44.271Z,100813.28
2022-12-04T23:12:46.627Z,100816.53
2022-12-04T23:15:50.276Z,100811.72
2022-12-04T23:18:52.958Z,100815.88
2022-12-04T23:21:57.459Z,100809.16
2022-12-04T23:25:00.196Z,100802.22
2022-12-04T23:28:02.457Z,100808.13
2022-12-04T23:31:04.994Z,100802.94
2022-12-04T23:34:07.871Z,100787.69
2022-12-04T23:37:10.302Z,100788.59
2022-12-04T23:40:12.879Z,100789.34
2022-12-04T23:43:18.576Z,100811.03
2022-12-04T23:46:23.649Z,100799.63
2022-12-04T23:49:26.028Z,100807.41
2022-12-04T23:52:28.698Z,100817.72
2022-12-04T23:55:34.227Z,100814.41
2022-12-04T23:58:37.582Z,100816.69
